Time;durP1;ratioP1;P1;durP2;ratioP2;P2;SDS_P1;SDS_P2;PMS_P1;PMS_P2;Temp;Humidity;BMP_temperature;BMP_pressure;BME280_temperature;BME280_humidity;BME280_pressure;Samples;Min_cycle;Max_cycle;Signal;HPM_P1;HPM_P2
2024/03/20 00:01:49;;;;;;;7.50;4.65;;;15.80;99.90;;;;;;10020865;28;20195;-71
2024/03/20 00:06:39;;;;;;;8.18;4.97;;;15.70;99.90;;;;;;10021031;28;20033;-70
2024/03/20 00:11:30;;;;;;;10.38;5.32;;;15.70;99.90;;;;;;10020630;28;20084;-70
2024/03/20 00:16:24;;;;;;;8.32;4.43;;;15.60;99.90;;;;;;10025866;28;20036;-70
2024/03/20 00:21:16;;;;;;;6.78;4.28;;;15.50;99.90;;;;;;10024815;28;20120;-70
2024/03/20 00:26:06;;;;;;;8.45;4.97;;;15.60;99.90;;;;;;10017411;28;20489;-69
2024/03/20 00:30:57;;;;;;;8.13;4.97;;;15.60;99.90;;;;;;10019115;28;20045;-70
2024/03/20 00:35:48;;;;;;;9.57;6.07;;;15.60;99.90;;;;;;10018589;28;20049;-70
2024/03/20 00:40:39;;;;;;;9.68;4.55;;;15.50;99.90;;;;;;10019266;28;20049;-70
2024/03/20 00:45:33;;;;;;;10.65;5.55;;;15.50;99.90;;;;;;10019156;28;20036;-69
2024/03/20 00:50:23;;;;;;;9.27;4.82;;;15.40;99.90;;;;;;10017050;28;20036;-70
2024/03/20 00:55:14;;;;;;;9.10;5.68;;;15.40;99.90;;;;;;10018533;28;20114;-69
2024/03/20 01:00:07;;;;;;;11.82;6.68;;;15.30;99.90;;;;;;10018351;28;20102;-70
2024/03/20 01:04:59;;;;;;;11.65;6.40;;;15.30;99.90;;;;;;10018690;28;20018;-70
2024/03/20 01:09:49;;;;;;;10.25;6.13;;;15.30;99.90;;;;;;10017359;28;20068;-70
2024/03/20 01:14:40;;;;;;;13.75;7.28;;;15.20;99.90;;;;;;10018409;28;20091;-70
2024/03/20 01:19:31;;;;;;;10.63;6.85;;;15.10;99.90;;;;;;10019942;28;20503;-70
2024/03/20 01:24:24;;;;;;;12.13;8.05;;;15.00;99.90;;;;;;10017031;28;20045;-69
2024/03/20 01:29:19;;;;;;;14.95;7.72;;;14.90;99.90;;;;;;10016944;28;20018;-70
2024/03/20 01:34:09;;;;;;;11.55;7.15;;;14.90;99.90;;;;;;10023712;28;20204;-69
2024/03/20 01:39:02;;;;;;;12.90;7.35;;;14.90;99.90;;;;;;10017490;28;20663;-69
2024/03/20 01:43:54;;;;;;;11.38;7.70;;;14.80;99.90;;;;;;10025670;28;20491;-69
2024/03/20 01:48:44;;;;;;;15.00;7.47;;;14.70;99.90;;;;;;10018761;28;20032;-69
2024/03/20 01:53:35;;;;;;;16.75;8.40;;;14.70;99.90;;;;;;10016730;28;20396;-69
2024/03/20 01:58:26;;;;;;;14.98;8.68;;;14.80;99.90;;;;;;10017424;28;20515;-69
2024/03/20 02:03:20;;;;;;;14.25;8.13;;;14.70;99.90;;;;;;10017207;28;20045;-70
2024/03/20 02:08:11;;;;;;;17.08;8.93;;;14.70;99.90;;;;;;10015807;28;20076;-70
2024/03/20 02:13:06;;;;;;;17.60;9.20;;;14.60;99.90;;;;;;10016838;28;20080;-68
2024/03/20 02:17:57;;;;;;;17.83;8.73;;;14.60;99.90;;;;;;10021375;28;20456;-69
2024/03/20 02:22:48;;;;;;;20.10;10.35;;;14.60;99.90;;;;;;10016302;28;20084;-69
2024/03/20 02:27:39;;;;;;;16.70;8.15;;;14.60;99.90;;;;;;10016541;28;20030;-69
2024/03/20 02:32:30;;;;;;;18.45;9.23;;;14.60;99.90;;;;;;10017140;28;20124;-69
2024/03/20 02:37:22;;;;;;;16.55;8.38;;;14.50;99.90;;;;;;10014148;28;20054;-69
2024/03/20 02:42:12;;;;;;;17.50;8.95;;;14.40;99.90;;;;;;10023868;28;20160;-69
2024/03/20 02:47:03;;;;;;;17.70;10.32;;;14.40;99.90;;;;;;10014939;28;20571;-68
2024/03/20 02:51:54;;;;;;;18.13;9.40;;;14.50;99.90;;;;;;10016148;28;20076;-68
2024/03/20 02:56:44;;;;;;;15.32;8.30;;;14.40;99.90;;;;;;10016534;28;20101;-68
2024/03/20 03:01:35;;;;;;;19.95;10.60;;;14.50;99.90;;;;;;10016177;28;20048;-69
2024/03/20 03:06:26;;;;;;;19.70;9.95;;;14.40;99.90;;;;;;10018411;28;20034;-67
2024/03/20 03:11:16;;;;;;;20.05;9.43;;;14.40;99.90;;;;;;10022911;28;20037;-68
2024/03/20 03:16:16;;;;;;;21.20;9.98;;;14.30;99.90;;;;;;10021547;28;20022;-68
2024/03/20 03:21:10;;;;;;;19.48;11.70;;;14.30;99.90;;;;;;10022151;28;20038;-68
2024/03/20 03:26:01;;;;;;;19.67;9.85;;;14.20;99.90;;;;;;10044695;28;20498;-68
2024/03/20 03:30:51;;;;;;;21.00;9.90;;;14.20;99.90;;;;;;10021566;28;20030;-68
2024/03/20 03:35:45;;;;;;;19.42;10.07;;;14.10;99.90;;;;;;10021613;28;20511;-68
2024/03/20 03:40:36;;;;;;;18.83;9.50;;;14.10;99.90;;;;;;10021279;28;20442;-68
2024/03/20 03:45:26;;;;;;;16.67;9.90;;;14.10;99.90;;;;;;10021190;28;20112;-68
2024/03/20 03:50:17;;;;;;;20.67;10.05;;;14.00;99.90;;;;;;10025338;28;20539;-68
2024/03/20 03:55:09;;;;;;;18.25;9.05;;;13.90;99.90;;;;;;10021378;28;20101;-68
2024/03/20 03:59:59;;;;;;;17.67;8.82;;;13.90;99.90;;;;;;10019782;28;20037;-68
2024/03/20 04:04:50;;;;;;;19.42;10.02;;;13.90;99.90;;;;;;10012929;28;20396;-68
2024/03/20 04:09:41;;;;;;;21.88;10.52;;;13.80;99.90;;;;;;10018542;28;20038;-67
2024/03/20 04:14:32;;;;;;;16.85;9.43;;;13.70;99.90;;;;;;10019415;28;21120;-70
2024/03/20 04:19:22;;;;;;;12.30;7.57;;;13.60;99.90;;;;;;10020067;28;20626;-68
2024/03/20 04:24:13;;;;;;;12.60;7.05;;;13.50;99.90;;;;;;10019067;28;20072;-68
2024/03/20 04:29:04;;;;;;;8.63;6.65;;;13.50;99.90;;;;;;10019192;28;20426;-69
2024/03/20 04:33:55;;;;;;;13.30;6.47;;;13.40;99.90;;;;;;10022852;28;20518;-68
2024/03/20 04:38:45;;;;;;;11.63;6.70;;;13.40;99.90;;;;;;10017473;28;20054;-68
2024/03/20 04:43:36;;;;;;;10.05;6.03;;;13.30;99.90;;;;;;10019362;28;20034;-67
2024/03/20 04:48:27;;;;;;;10.95;6.50;;;13.30;99.90;;;;;;10018801;28;20018;-67
2024/03/20 04:53:19;;;;;;;12.13;6.40;;;13.30;99.90;;;;;;10018977;28;20499;-68
2024/03/20 04:58:09;;;;;;;13.27;7.40;;;13.20;99.90;;;;;;10017526;28;20814;-67
2024/03/20 05:03:00;;;;;;;10.98;6.78;;;13.20;99.90;;;;;;10022111;28;20451;-68
2024/03/20 05:07:51;;;;;;;12.93;7.05;;;13.20;99.90;;;;;;10018541;28;20446;-68
2024/03/20 05:12:42;;;;;;;13.35;6.80;;;13.10;99.90;;;;;;10018063;28;20034;-68
2024/03/20 05:17:33;;;;;;;11.13;6.50;;;13.10;99.90;;;;;;10031359;28;20065;-68
2024/03/20 05:22:24;;;;;;;13.60;7.35;;;13.10;99.90;;;;;;10018111;28;20041;-68
2024/03/20 05:27:14;;;;;;;11.98;6.68;;;13.10;99.90;;;;;;10017239;28;20077;-68
2024/03/20 05:32:05;;;;;;;13.55;6.95;;;13.00;99.90;;;;;;10015772;28;20109;-67
2024/03/20 05:36:56;;;;;;;14.90;8.02;;;13.00;99.90;;;;;;10014514;28;20056;-68
2024/03/20 05:41:46;;;;;;;16.15;7.15;;;12.90;99.90;;;;;;10016920;28;20412;-68
2024/03/20 05:46:37;;;;;;;16.45;7.63;;;12.80;99.90;;;;;;10018350;28;20029;-68
2024/03/20 05:51:27;;;;;;;14.52;7.25;;;12.90;99.90;;;;;;10016953;28;20547;-67
2024/03/20 05:56:18;;;;;;;9.38;6.18;;;12.90;99.90;;;;;;10039178;28;20117;-68
2024/03/20 06:01:09;;;;;;;15.27;7.07;;;12.80;99.90;;;;;;10019995;28;20125;-68
2024/03/20 06:06:01;;;;;;;11.90;7.07;;;12.90;99.90;;;;;;10014094;28;20053;-68
2024/03/20 06:10:51;;;;;;;13.55;6.57;;;12.80;99.90;;;;;;10016116;28;20026;-67
2024/03/20 06:15:42;;;;;;;12.98;6.63;;;12.80;99.90;;;;;;10018570;28;20056;-67
2024/03/20 06:20:33;;;;;;;9.95;5.57;;;12.80;99.90;;;;;;10020070;28;20117;-67
2024/03/20 06:25:24;;;;;;;10.48;5.22;;;12.90;99.90;;;;;;10035554;28;20105;-68
2024/03/20 06:30:17;;;;;;;9.30;5.68;;;12.80;99.90;;;;;;10016085;28;20136;-68
2024/03/20 06:35:08;;;;;;;13.07;5.70;;;12.90;99.90;;;;;;10016769;28;20117;-68
2024/03/20 06:39:59;;;;;;;13.27;6.05;;;13.00;99.90;;;;;;10020550;28;20095;-67
2024/03/20 06:44:50;;;;;;;10.10;5.28;;;13.10;99.90;;;;;;10024115;28;20038;-68
2024/03/20 06:49:41;;;;;;;15.90;6.85;;;13.10;99.90;;;;;;10023768;28;20515;-66
2024/03/20 06:54:31;;;;;;;16.50;7.60;;;13.10;99.90;;;;;;10023194;28;20029;-67
2024/03/20 06:59:22;;;;;;;15.68;7.75;;;13.20;99.90;;;;;;10021533;28;20034;-67
2024/03/20 07:04:13;;;;;;;17.10;8.65;;;13.20;99.90;;;;;;10023088;28;20042;-66
2024/03/20 07:09:03;;;;;;;22.13;9.30;;;13.30;99.90;;;;;;10031226;28;20018;-68
2024/03/20 07:13:55;;;;;;;19.40;9.25;;;13.30;99.90;;;;;;10022311;28;20029;-67
2024/03/20 07:18:45;;;;;;;26.73;11.00;;;13.30;99.90;;;;;;10024895;28;20057;-67
2024/03/20 07:23:36;;;;;;;19.30;9.98;;;13.30;99.90;;;;;;10022023;28;20446;-69
2024/03/20 07:28:27;;;;;;;24.10;10.88;;;13.40;99.90;;;;;;10021664;28;20030;-68
2024/03/20 07:33:18;;;;;;;21.40;11.40;;;13.40;99.90;;;;;;10021591;28;20061;-66
2024/03/20 07:38:09;;;;;;;22.85;11.98;;;13.50;99.90;;;;;;10026457;28;20678;-67
2024/03/20 07:43:00;;;;;;;22.98;11.38;;;13.50;99.90;;;;;;10018089;28;20046;-66
2024/03/20 07:47:51;;;;;;;21.10;9.93;;;13.60;99.90;;;;;;10020467;28;20072;-67
2024/03/20 07:52:41;;;;;;;19.85;10.73;;;13.60;99.90;;;;;;10015553;28;20029;-68
2024/03/20 07:57:32;;;;;;;28.00;10.73;;;13.60;99.90;;;;;;10028869;28;20037;-66
2024/03/20 08:02:22;;;;;;;32.22;12.27;;;13.60;99.90;;;;;;10019800;28;20026;-67
2024/03/20 08:07:13;;;;;;;29.30;12.30;;;13.70;99.90;;;;;;10018975;28;20097;-68
2024/03/20 08:12:04;;;;;;;29.35;13.45;;;13.60;99.90;;;;;;10019254;28;20045;-67
2024/03/20 08:16:54;;;;;;;27.23;13.95;;;13.50;99.90;;;;;;10019591;28;20627;-67
2024/03/20 08:21:46;;;;;;;28.50;13.65;;;13.50;99.90;;;;;;10016961;28;20038;-67
2024/03/20 08:26:39;;;;;;;24.55;12.20;;;13.60;99.90;;;;;;10017142;28;20061;-66
2024/03/20 08:31:30;;;;;;;26.60;12.88;;;13.70;99.90;;;;;;10020109;28;20043;-67
2024/03/20 08:36:20;;;;;;;26.13;13.27;;;13.80;99.90;;;;;;10017095;28;20733;-67
2024/03/20 08:41:12;;;;;;;31.88;14.13;;;13.80;99.90;;;;;;10017567;28;20034;-66
2024/03/20 08:46:08;;;;;;;27.88;12.02;;;13.70;99.90;;;;;;10016940;28;20030;-66
2024/03/20 08:50:58;;;;;;;24.73;12.73;;;13.70;99.90;;;;;;10036688;28;20050;-67
2024/03/20 08:55:49;;;;;;;32.47;16.90;;;13.80;99.90;;;;;;10007506;28;20036;-67
2024/03/20 09:00:40;;;;;;;29.67;14.35;;;13.90;99.90;;;;;;10019469;28;20034;-69
2024/03/20 09:05:31;;;;;;;31.90;14.60;;;13.90;99.90;;;;;;10017692;28;20122;-69
2024/03/20 09:10:21;;;;;;;31.20;14.35;;;13.90;99.90;;;;;;10021711;28;20407;-69
2024/03/20 09:15:12;;;;;;;31.55;15.10;;;13.90;99.90;;;;;;10022082;28;20043;-69
2024/03/20 09:20:06;;;;;;;34.50;15.40;;;14.10;99.90;;;;;;10014627;28;20585;-68
2024/03/20 09:25:00;;;;;;;29.55;13.32;;;14.10;99.90;;;;;;10019920;28;20042;-67
2024/03/20 09:29:50;;;;;;;26.73;13.57;;;14.10;99.90;;;;;;10024510;28;20046;-68
2024/03/20 09:34:41;;;;;;;31.25;14.18;;;14.00;99.90;;;;;;10016516;28;20034;-67
2024/03/20 09:39:32;;;;;;;29.42;15.82;;;14.10;99.90;;;;;;10016723;28;20169;-68
2024/03/20 09:44:23;;;;;;;31.17;14.73;;;14.30;99.90;;;;;;10022743;28;20076;-67
2024/03/20 09:49:15;;;;;;;28.92;15.13;;;14.40;99.90;;;;;;10012859;28;20586;-66
2024/03/20 09:54:08;;;;;;;31.77;15.40;;;14.50;99.90;;;;;;10016876;28;20026;-66
2024/03/20 09:58:58;;;;;;;27.17;14.05;;;14.50;99.90;;;;;;10013455;28;20514;-68
2024/03/20 10:03:56;;;;;;;31.30;15.23;;;14.50;99.90;;;;;;10014994;28;20041;-66
2024/03/20 10:08:47;;;;;;;29.50;14.38;;;14.50;99.90;;;;;;10009302;28;20048;-67
2024/03/20 10:13:40;;;;;;;28.65;15.02;;;14.50;99.90;;;;;;10014799;28;20034;-67
2024/03/20 10:18:31;;;;;;;32.33;14.52;;;14.50;99.90;;;;;;10022770;28;20045;-66
2024/03/20 10:23:22;;;;;;;33.42;15.68;;;14.40;99.90;;;;;;10023339;28;20060;-67
2024/03/20 10:28:14;;;;;;;30.65;12.18;;;14.40;99.90;;;;;;10022174;28;20037;-67
2024/03/20 10:33:07;;;;;;;30.83;12.90;;;14.40;99.90;;;;;;10022988;28;20054;-67
2024/03/20 10:37:58;;;;;;;28.17;13.88;;;14.40;99.90;;;;;;10022990;28;20058;-67
2024/03/20 10:42:50;;;;;;;28.17;12.88;;;14.40;99.90;;;;;;10022243;28;20060;-66
2024/03/20 10:47:42;;;;;;;27.15;11.48;;;14.50;99.90;;;;;;10021833;28;20022;-66
2024/03/20 10:52:34;;;;;;;28.40;12.02;;;14.70;99.90;;;;;;10021476;28;20029;-66
2024/03/20 10:57:27;;;;;;;23.17;13.45;;;14.70;99.90;;;;;;10019788;28;20021;-66
2024/03/20 11:02:24;;;;;;;28.05;13.25;;;14.90;99.90;;;;;;10024554;28;20411;-65
2024/03/20 11:07:29;;;;;;;23.70;12.07;;;15.00;99.90;;;;;;10019875;28;20028;-67
2024/03/20 11:12:27;;;;;;;;;;;15.00;99.90;;;;;;10021892;28;20133;-66
2024/03/20 11:17:20;;;;;;;22.75;10.93;;;15.10;99.90;;;;;;10026608;28;20016;-67
2024/03/20 11:22:22;;;;;;;20.70;11.18;;;15.20;99.90;;;;;;10019689;28;20065;-66
2024/03/20 11:27:13;;;;;;;19.05;11.93;;;15.30;99.90;;;;;;10021354;28;20499;-66
2024/03/20 11:32:03;;;;;;;21.58;10.52;;;15.30;99.90;;;;;;10021895;28;20034;-66
2024/03/20 11:36:54;;;;;;;24.10;10.55;;;15.50;99.90;;;;;;10020553;28;20127;-65
2024/03/20 11:41:46;;;;;;;18.58;10.38;;;15.60;99.90;;;;;;10018416;28;20435;-67
2024/03/20 11:46:38;;;;;;;17.23;8.77;;;15.60;99.90;;;;;;10034584;28;20033;-67
2024/03/20 11:51:29;;;;;;;19.38;9.88;;;15.70;99.90;;;;;;10025140;28;20403;-68
2024/03/20 11:56:22;;;;;;;14.75;7.30;;;15.70;99.90;;;;;;10006180;28;20489;-67
2024/03/20 12:01:13;;;;;;;11.02;6.43;;;15.80;99.90;;;;;;10017090;28;20092;-66
2024/03/20 12:06:21;;;;;;;9.02;6.13;;;16.00;99.90;;;;;;10018955;28;20022;-67
2024/03/20 12:11:13;;;;;;;8.27;5.25;;;16.10;99.90;;;;;;10015809;28;20034;-67
2024/03/20 12:16:03;;;;;;;6.55;4.55;;;16.20;99.90;;;;;;10024788;28;20559;-67
2024/03/20 12:20:54;;;;;;;7.35;4.50;;;16.20;99.90;;;;;;10003095;28;20046;-67
2024/03/20 12:25:45;;;;;;;9.60;4.95;;;16.40;99.90;;;;;;10014335;28;20030;-67
2024/03/20 12:30:39;;;;;;;6.97;3.88;;;16.50;99.90;;;;;;10030041;28;20040;-67
2024/03/20 12:35:29;;;;;;;8.80;3.90;;;16.50;99.90;;;;;;10009718;28;20518;-67
2024/03/20 12:40:20;;;;;;;7.82;3.97;;;16.60;99.90;;;;;;10008503;28;20029;-68
2024/03/20 12:45:11;;;;;;;8.60;4.40;;;16.70;99.90;;;;;;10009902;28;20041;-66
2024/03/20 12:50:02;;;;;;;4.63;3.20;;;16.80;99.90;;;;;;10004904;28;20494;-67
2024/03/20 12:54:53;;;;;;;6.78;3.70;;;16.90;99.90;;;;;;10012132;28;20148;-67
2024/03/20 12:59:44;;;;;;;5.25;3.05;;;17.00;99.90;;;;;;10008489;28;20188;-67
2024/03/20 13:04:34;;;;;;;5.28;2.78;;;17.20;99.90;;;;;;10015748;28;20042;-67
2024/03/20 13:09:26;;;;;;;2.95;2.50;;;17.20;99.90;;;;;;10007694;28;20061;-67
2024/03/20 13:14:17;;;;;;;6.93;3.53;;;17.30;99.90;;;;;;10008571;28;20113;-67
2024/03/20 13:19:09;;;;;;;6.90;2.60;;;17.50;99.90;;;;;;10008528;28;20703;-67
2024/03/20 13:24:00;;;;;;;4.97;2.45;;;17.60;99.90;;;;;;10004494;28;20419;-66
2024/03/20 13:28:52;;;;;;;5.18;2.40;;;17.70;99.90;;;;;;10012226;28;20033;-66
2024/03/20 13:33:46;;;;;;;4.10;2.50;;;17.80;99.90;;;;;;10009061;28;20041;-66
2024/03/20 13:38:38;;;;;;;4.75;2.72;;;18.00;99.90;;;;;;9973237;28;1162803;-68
2024/03/20 13:43:39;;;;;;;4.50;2.42;;;18.20;99.90;;;;;;10007712;28;20122;-67
2024/03/20 13:48:30;;;;;;;3.40;2.17;;;18.30;99.90;;;;;;10012601;28;20076;-66
2024/03/20 13:53:20;;;;;;;3.38;2.60;;;18.50;99.90;;;;;;10015225;28;20030;-67
2024/03/20 13:58:11;;;;;;;2.67;2.00;;;18.70;99.90;;;;;;10008274;28;20034;-68
2024/03/20 14:03:02;;;;;;;4.75;1.98;;;18.80;99.90;;;;;;10002705;28;20049;-70
2024/03/20 14:07:53;;;;;;;2.78;1.67;;;19.00;99.90;;;;;;10012856;28;20039;-68
2024/03/20 14:12:48;;;;;;;3.42;2.00;;;19.00;99.90;;;;;;10008640;28;20121;-70
2024/03/20 14:17:40;;;;;;;2.58;1.40;;;19.20;99.90;;;;;;9996154;28;20038;-70
2024/03/20 14:22:35;;;;;;;2.55;1.65;;;19.40;99.90;;;;;;10013722;28;20033;-68
2024/03/20 14:27:26;;;;;;;2.67;1.70;;;19.50;99.90;;;;;;10015312;28;20025;-67
2024/03/20 14:32:17;;;;;;;3.63;1.80;;;19.80;99.90;;;;;;10015610;28;20101;-68
2024/03/20 14:37:09;;;;;;;3.35;1.42;;;20.10;99.90;;;;;;10012374;28;20122;-69
2024/03/20 14:42:01;;;;;;;1.63;1.35;;;20.60;99.90;;;;;;10014948;28;20499;-68
2024/03/20 14:46:52;;;;;;;4.82;1.23;;;20.90;99.90;;;;;;10015503;28;20403;-69
2024/03/20 14:51:43;;;;;;;1.45;1.00;;;21.10;99.90;;;;;;10016822;28;20026;-69
2024/03/20 14:56:36;;;;;;;1.95;1.10;;;21.00;99.90;;;;;;10014455;28;20041;-67
2024/03/20 15:01:27;;;;;;;3.00;1.58;;;21.20;99.90;;;;;;10016451;28;20029;-68
2024/03/20 15:06:19;;;;;;;1.63;1.30;;;21.40;99.90;;;;;;10019234;28;20419;-68
2024/03/20 15:11:14;;;;;;;1.98;1.00;;;21.60;99.90;;;;;;10018065;28;20022;-67
2024/03/20 15:16:05;;;;;;;3.63;1.55;;;21.30;99.90;;;;;;10022433;28;20038;-68
2024/03/20 15:20:55;;;;;;;1.90;1.45;;;21.40;99.90;;;;;;10021450;28;20062;-66
2024/03/20 15:25:47;;;;;;;3.83;1.38;;;21.30;99.90;;;;;;10020533;28;20033;-68
2024/03/20 15:30:39;;;;;;;3.05;1.27;;;21.50;99.90;;;;;;10024128;28;20061;-67
2024/03/20 15:35:30;;;;;;;2.78;1.17;;;21.60;99.90;;;;;;10019821;28;20057;-66
2024/03/20 15:40:21;;;;;;;1.50;1.10;;;21.70;99.90;;;;;;10021048;28;20030;-67
2024/03/20 15:45:15;;;;;;;2.28;1.30;;;21.60;99.90;;;;;;10016769;28;20419;-68
2024/03/20 15:50:06;;;;;;;2.87;1.30;;;21.60;99.90;;;;;;10021108;28;20209;-71
2024/03/20 15:54:56;;;;;;;1.70;1.38;;;21.70;99.90;;;;;;10020182;28;20083;-68
2024/03/20 15:59:47;;;;;;;4.03;1.50;;;21.90;99.90;;;;;;10020465;28;21380;-69
2024/03/20 16:04:38;;;;;;;2.60;1.23;;;22.10;99.90;;;;;;10020227;28;20034;-68
2024/03/20 16:09:29;;;;;;;1.45;1.13;;;22.20;99.90;;;;;;10020191;28;20081;-68
2024/03/20 16:14:19;;;;;;;1.30;0.98;;;22.10;99.90;;;;;;10015992;28;20581;-67
2024/03/20 16:19:10;;;;;;;3.15;1.30;;;22.00;99.90;;;;;;10016717;28;20033;-67
2024/03/20 16:24:01;;;;;;;2.58;1.20;;;21.80;99.90;;;;;;10018288;28;20062;-67
2024/03/20 16:28:52;;;;;;;2.95;1.15;;;21.50;99.90;;;;;;10022739;28;20026;-68
2024/03/20 16:33:42;;;;;;;3.38;1.80;;;21.50;99.90;;;;;;10030629;28;20201;-66
2024/03/20 16:38:34;;;;;;;1.65;1.05;;;21.30;99.90;;;;;;10019638;28;20539;-68
2024/03/20 16:43:24;;;;;;;1.83;0.90;;;21.20;99.90;;;;;;10017766;28;20038;-68
2024/03/20 16:48:15;;;;;;;2.35;1.08;;;21.10;99.90;;;;;;10018407;28;20688;-66
2024/03/20 16:53:08;;;;;;;4.28;1.88;;;21.00;99.90;;;;;;10014947;28;20101;-68
2024/03/20 16:57:58;;;;;;;2.83;1.77;;;21.00;99.90;;;;;;10021027;28;20114;-68
2024/03/20 17:02:49;;;;;;;2.38;1.90;;;20.90;99.90;;;;;;10025898;28;20116;-67
2024/03/20 17:07:43;;;;;;;2.45;1.85;;;20.70;99.90;;;;;;10015431;28;20041;-69
2024/03/20 17:12:34;;;;;;;2.20;1.10;;;20.60;99.90;;;;;;10023958;28;20030;-67
2024/03/20 17:17:25;;;;;;;4.05;1.48;;;20.50;99.90;;;;;;10016393;28;20058;-68
2024/03/20 17:22:16;;;;;;;2.00;1.48;;;20.40;99.90;;;;;;10015600;28;20431;-67
2024/03/20 17:27:07;;;;;;;4.75;1.92;;;20.30;99.90;;;;;;10016513;28;20193;-70
2024/03/20 17:31:57;;;;;;;2.17;1.42;;;20.20;99.90;;;;;;10016657;28;20056;-69
2024/03/20 17:36:52;;;;;;;3.58;2.08;;;20.10;99.90;;;;;;10015880;28;20056;-69
2024/03/20 17:41:43;;;;;;;2.73;1.57;;;20.00;99.90;;;;;;10015994;28;20518;-70
2024/03/20 17:46:34;;;;;;;2.47;1.83;;;19.90;99.90;;;;;;10017206;28;20553;-69
2024/03/20 17:51:25;;;;;;;4.15;2.20;;;19.90;99.90;;;;;;10018802;28;20026;-68
2024/03/20 17:56:19;;;;;;;3.13;2.20;;;19.90;99.90;;;;;;10015908;28;20125;-69
2024/03/20 18:01:10;;;;;;;5.88;2.50;;;19.80;99.90;;;;;;10015762;28;20121;-69
2024/03/20 18:06:01;;;;;;;3.85;1.88;;;19.80;99.90;;;;;;10010591;28;20034;-69
2024/03/20 18:10:54;;;;;;;4.85;2.35;;;19.80;99.90;;;;;;10007535;28;20087;-69
2024/03/20 18:15:45;;;;;;;4.47;1.80;;;19.70;99.90;;;;;;9998375;28;20038;-67
2024/03/20 18:20:38;;;;;;;3.53;1.90;;;19.60;99.90;;;;;;10009623;28;20033;-66
2024/03/20 18:25:29;;;;;;;3.60;1.80;;;19.60;99.90;;;;;;10014745;28;20164;-67
2024/03/20 18:30:20;;;;;;;4.53;1.95;;;19.60;99.90;;;;;;10016745;28;20038;-67
2024/03/20 18:35:10;;;;;;;4.75;1.90;;;19.60;99.90;;;;;;10012526;28;20034;-67
2024/03/20 18:40:01;;;;;;;3.53;2.15;;;19.60;99.90;;;;;;10023764;28;20082;-68
2024/03/20 18:44:52;;;;;;;5.03;2.22;;;19.50;99.90;;;;;;10019681;28;20062;-68
2024/03/20 18:49:44;;;;;;;4.88;3.00;;;19.50;99.90;;;;;;10024103;28;20029;-69
2024/03/20 18:54:35;;;;;;;5.93;3.63;;;19.50;99.90;;;;;;10012786;28;20431;-68
2024/03/20 18:59:29;;;;;;;6.53;3.33;;;19.50;99.90;;;;;;10009379;28;20044;-72
2024/03/20 19:04:20;;;;;;;65.63;33.08;;;19.40;99.90;;;;;;10020203;28;20109;-69
2024/03/20 19:09:11;;;;;;;12.57;6.82;;;19.40;99.90;;;;;;10012069;28;20084;-71
2024/03/20 19:14:02;;;;;;;8.60;4.35;;;19.40;99.90;;;;;;10014801;28;20052;-70
2024/03/20 19:18:53;;;;;;;7.10;3.92;;;19.30;99.90;;;;;;10020947;28;20109;-67
2024/03/20 19:23:45;;;;;;;5.32;3.60;;;19.30;99.90;;;;;;10031124;28;20034;-67
2024/03/20 19:28:35;;;;;;;7.82;4.22;;;19.20;99.90;;;;;;10020831;28;20014;-67
2024/03/20 19:33:26;;;;;;;8.23;3.75;;;19.20;99.90;;;;;;10028758;28;20212;-67
2024/03/20 19:38:17;;;;;;;9.38;5.00;;;19.10;99.90;;;;;;10014336;28;20107;-70
2024/03/20 19:43:08;;;;;;;13.20;5.18;;;19.10;99.90;;;;;;10003240;28;20400;-70
2024/03/20 19:47:59;;;;;;;9.50;4.35;;;19.00;99.90;;;;;;10010730;28;20017;-72
2024/03/20 19:52:50;;;;;;;6.70;4.00;;;19.00;99.90;;;;;;10027001;28;20056;-70
2024/03/20 19:57:41;;;;;;;9.40;3.83;;;18.90;99.90;;;;;;10008727;28;20490;-71
2024/03/20 20:02:32;;;;;;;8.48;3.65;;;18.90;99.90;;;;;;10012180;28;20038;-71
2024/03/20 20:07:23;;;;;;;8.13;3.85;;;18.80;99.90;;;;;;10013056;28;20057;-71
2024/03/20 20:12:14;;;;;;;10.20;4.80;;;18.80;99.90;;;;;;10010933;28;20116;-71
2024/03/20 20:17:05;;;;;;;9.23;4.63;;;18.70;99.90;;;;;;10015693;28;20113;-73
2024/03/20 20:21:56;;;;;;;7.75;4.82;;;18.70;99.90;;;;;;10015833;28;20574;-69
2024/03/20 20:26:49;;;;;;;5.72;3.95;;;18.60;99.90;;;;;;10011004;28;20044;-68
2024/03/20 20:31:41;;;;;;;4.97;3.72;;;18.60;99.90;;;;;;10011460;28;20044;-70
2024/03/20 20:36:37;;;;;;;8.18;4.07;;;18.60;99.90;;;;;;10008110;28;20138;-69
2024/03/20 20:41:28;;;;;;;6.75;3.72;;;18.50;99.90;;;;;;10013840;28;20566;-68
2024/03/20 20:46:18;;;;;;;10.52;4.47;;;18.50;99.90;;;;;;10003066;28;20125;-69
2024/03/20 20:51:09;;;;;;;7.45;4.22;;;18.50;99.90;;;;;;10017485;28;20034;-69
2024/03/20 20:56:02;;;;;;;7.35;4.60;;;18.40;99.90;;;;;;10014176;28;20057;-68
2024/03/20 21:00:53;;;;;;;7.55;5.20;;;18.40;99.90;;;;;;10013368;28;20120;-69
2024/03/20 21:21:12;;;;;;;10.32;5.60;;;18.30;99.90;;;;;;10007341;28;20662;-69
2024/03/20 21:26:05;;;;;;;7.68;4.60;;;18.20;99.90;;;;;;10010815;28;20037;-68
2024/03/20 21:30:57;;;;;;;8.10;5.22;;;18.10;99.90;;;;;;10004851;28;20030;-69
2024/03/20 21:35:53;;;;;;;10.95;5.78;;;18.10;99.90;;;;;;9998432;28;20042;-68
2024/03/20 21:40:47;;;;;;;8.30;5.78;;;18.00;99.90;;;;;;10019305;28;20432;-66
2024/03/20 21:45:41;;;;;;;9.95;5.30;;;18.00;99.90;;;;;;10012690;28;20048;-68
2024/03/20 21:50:32;;;;;;;13.73;6.15;;;17.90;99.90;;;;;;10009600;28;20126;-69
2024/03/20 21:55:24;;;;;;;11.75;5.72;;;17.90;99.90;;;;;;9996636;28;20125;-70
2024/03/20 22:00:15;;;;;;;10.98;7.47;;;17.90;99.90;;;;;;10013909;28;20125;-68
2024/03/20 22:05:06;;;;;;;13.93;6.93;;;17.90;99.90;;;;;;10010428;28;20508;-68
2024/03/20 22:09:57;;;;;;;9.77;6.28;;;17.80;99.90;;;;;;10019888;28;20042;-68
2024/03/20 22:14:47;;;;;;;9.98;6.40;;;17.80;99.90;;;;;;10015051;28;20255;-67
2024/03/20 22:19:38;;;;;;;11.48;6.57;;;17.70;99.90;;;;;;10015994;28;20508;-67
2024/03/20 22:24:30;;;;;;;10.45;5.90;;;17.70;99.90;;;;;;10009886;28;20054;-68
2024/03/20 22:29:21;;;;;;;10.00;5.57;;;17.60;99.90;;;;;;10016701;28;20553;-67
2024/03/20 22:34:14;;;;;;;10.85;5.68;;;17.50;99.90;;;;;;10015237;28;20069;-68
2024/03/20 22:39:07;;;;;;;10.20;5.72;;;17.40;99.90;;;;;;10003004;28;20045;-69
2024/03/20 22:43:58;;;;;;;10.50;5.93;;;17.50;99.90;;;;;;10011574;28;20026;-69
2024/03/20 22:48:49;;;;;;;8.40;5.30;;;17.40;99.90;;;;;;10020697;28;20040;-67
2024/03/20 22:53:41;;;;;;;9.43;5.85;;;17.40;99.90;;;;;;10010633;28;20030;-70
2024/03/20 22:58:32;;;;;;;10.15;6.03;;;17.40;99.90;;;;;;10012926;28;20054;-70
2024/03/20 23:03:22;;;;;;;8.07;5.03;;;17.30;99.90;;;;;;10011318;28;20515;-69
2024/03/20 23:08:13;;;;;;;10.10;6.30;;;17.20;99.90;;;;;;10014246;28;20045;-71
2024/03/20 23:13:04;;;;;;;14.73;6.65;;;17.20;99.90;;;;;;10016243;28;20034;-70
2024/03/20 23:17:56;;;;;;;12.88;6.43;;;17.10;99.90;;;;;;10013222;28;20064;-71
2024/03/20 23:22:47;;;;;;;14.50;7.88;;;17.00;99.90;;;;;;10015390;28;20045;-67
2024/03/20 23:27:37;;;;;;;14.60;8.13;;;17.00;99.90;;;;;;10018094;28;20045;-68
2024/03/20 23:32:28;;;;;;;10.25;6.72;;;17.00;99.90;;;;;;10017411;28;20052;-69
2024/03/20 23:37:20;;;;;;;12.18;7.18;;;16.90;99.90;;;;;;10018902;28;20050;-69
2024/03/20 23:42:11;;;;;;;12.27;6.55;;;16.90;99.90;;;;;;10019687;28;20038;-68
2024/03/20 23:47:02;;;;;;;12.88;6.53;;;16.80;99.90;;;;;;10021556;28;20029;-68
2024/03/20 23:51:53;;;;;;;10.32;6.85;;;16.70;99.90;;;;;;10022609;28;20022;-69
2024/03/20 23:56:44;;;;;;;10.05;7.07;;;16.70;99.90;;;;;;10010382;28;20153;-67
